Time;durP1;ratioP1;P1;durP2;ratioP2;P2;SDS_P1;SDS_P2;PMS_P1;PMS_P2;Temp;Humidity;BMP_temperature;BMP_pressure;BME280_temperature;BME280_humidity;BME280_pressure;Samples;Min_cycle;Max_cycle;Signal;HPM_P1;HPM_P2
2022/06/15 00:01:17;;;;;;;4.10;2.00;;;;;;;13.87;57.22;99641.38;109314;1273;22442;-62
2022/06/15 00:03:44;;;;;;;3.50;1.80;;;;;;;13.85;57.30;99642.86;109190;1274;139028;-62
2022/06/15 00:06:13;;;;;;;4.00;2.10;;;;;;;13.85;57.42;99644.35;109230;1273;23320;-62
2022/06/15 00:08:42;;;;;;;2.60;2.00;;;;;;;13.85;57.50;99641.06;109149;1274;139297;-62
2022/06/15 00:11:11;;;;;;;2.90;2.10;;;;;;;13.85;57.40;99639.88;109280;1273;22734;-62
2022/06/15 00:13:38;;;;;;;6.60;2.10;;;;;;;13.85;57.47;99642.09;109214;1273;23348;-62
2022/06/15 00:16:05;;;;;;;4.10;1.70;;;;;;;13.86;57.56;99641.83;109176;1274;137104;-62
2022/06/15 00:18:33;;;;;;;4.40;1.50;;;;;;;13.87;57.66;99637.88;109316;1273;22456;-62
2022/06/15 00:21:00;;;;;;;4.90;1.90;;;;;;;13.88;57.46;99638.27;109091;1273;138038;-63
2022/06/15 00:23:28;;;;;;;7.20;2.00;;;;;;;13.88;57.54;99640.40;109362;1274;22506;-63
2022/06/15 00:25:57;;;;;;;2.90;1.80;;;;;;;13.89;57.41;99640.46;109188;1274;137304;-63
2022/06/15 00:28:25;;;;;;;2.60;1.50;;;;;;;13.90;57.35;99638.76;109356;1273;22857;-63
2022/06/15 00:30:52;;;;;;;2.30;1.50;;;;;;;13.90;57.51;99640.90;109250;1274;22465;-63
2022/06/15 00:33:26;;;;;;;4.00;1.80;;;;;;;13.91;57.50;99640.30;109131;1273;137803;-63
2022/06/15 00:36:04;;;;;;;4.50;2.10;;;;;;;13.90;57.51;99642.20;109212;1274;22487;-63
2022/06/15 00:38:32;;;;;;;4.80;2.20;;;;;;;13.88;57.78;99636.52;108805;1276;137496;-63
2022/06/15 00:40:59;;;;;;;3.10;1.70;;;;;;;13.88;57.90;99641.34;109273;1273;22602;-63
2022/06/15 00:43:49;;;;;;;4.90;1.80;;;;;;;13.87;57.78;99641.71;109218;1274;22466;-63
2022/06/15 00:46:19;;;;;;;6.00;1.70;;;;;;;13.86;57.77;99638.92;109309;1273;22449;-63
2022/06/15 00:48:48;;;;;;;2.90;1.70;;;;;;;13.85;57.89;99635.33;109267;1274;22418;-63
2022/06/15 00:51:14;;;;;;;3.00;2.00;;;;;;;13.84;58.02;99633.30;109023;1274;137593;-63
2022/06/15 00:53:41;;;;;;;;;;;;;;;13.83;58.03;99631.83;109204;1274;23283;-63
2022/06/15 00:56:08;;;;;;;4.60;1.50;;;;;;;13.81;58.06;99634.46;107493;1273;124194;-62
2022/06/15 00:58:37;;;;;;;2.10;1.40;;;;;;;13.79;58.11;99628.27;104930;1275;22935;-62
2022/06/15 01:01:05;;;;;;;5.30;1.70;;;;;;;13.78;58.24;99629.74;109260;1274;22391;-63
2022/06/15 01:03:32;;;;;;;9.10;2.40;;;;;;;13.75;58.33;99626.73;109054;1273;140654;-62
2022/06/15 01:06:13;;;;;;;4.00;1.90;;;;;;;13.71;58.61;99630.91;109055;1276;22578;-62
2022/06/15 01:08:52;;;;;;;5.10;2.00;;;;;;;13.68;58.64;99630.27;109061;1273;137512;-62
2022/06/15 01:11:29;;;;;;;3.50;2.00;;;;;;;13.65;58.88;99633.49;109204;1274;22451;-62
2022/06/15 01:14:08;;;;;;;7.20;2.40;;;;;;;13.59;58.67;99629.34;109040;1273;137629;-62
2022/06/15 01:17:02;;;;;;;3.00;1.60;;;;;;;13.58;58.92;99638.02;109209;1273;22470;-62
2022/06/15 01:19:38;;;;;;;3.00;1.70;;;;;;;13.54;59.06;99638.00;108469;1282;22487;-62
2022/06/15 01:22:26;;;;;;;3.90;1.80;;;;;;;13.52;59.18;99639.02;108341;1282;137783;-62
2022/06/15 01:25:21;;;;;;;3.90;1.70;;;;;;;13.49;59.30;99642.09;108496;1281;23181;-63
2022/06/15 01:28:31;;;;;;;3.30;1.90;;;;;;;13.47;59.35;99646.96;104369;1282;138821;-62
2022/06/15 01:31:02;;;;;;;4.70;1.90;;;;;;;13.44;59.56;99644.72;103499;1290;24998;-63
2022/06/15 01:33:39;;;;;;;8.70;1.90;;;;;;;13.42;59.65;99647.02;103308;1290;137767;-63
2022/06/15 01:36:24;;;;;;;5.20;1.90;;;;;;;13.40;59.73;99651.58;107547;1289;22671;-62
2022/06/15 01:39:10;;;;;;;8.40;1.80;;;;;;;13.37;59.90;99653.81;107507;1288;138676;-62
2022/06/15 01:41:49;;;;;;;4.10;2.20;;;;;;;13.32;59.97;99651.34;107723;1288;22517;-62
2022/06/15 01:44:21;;;;;;;4.00;2.00;;;;;;;13.30;60.12;99649.52;107657;1286;139147;-61
2022/06/15 01:46:48;;;;;;;4.60;1.80;;;;;;;13.27;60.25;99649.20;107630;1290;22439;-61
2022/06/15 01:49:21;;;;;;;5.30;2.20;;;;;;;13.22;60.37;99655.38;107897;1288;22490;-61
2022/06/15 01:51:48;;;;;;;3.60;2.20;;;;;;;13.18;60.66;99657.06;107566;1288;138324;-61
2022/06/15 01:54:30;;;;;;;3.40;1.90;;;;;;;13.12;60.78;99657.97;107719;1288;22404;-61
2022/06/15 01:56:57;;;;;;;7.30;2.50;;;;;;;13.08;60.92;99663.66;107676;1284;137889;-61
2022/06/15 01:59:30;;;;;;;7.80;1.80;;;;;;;13.06;61.06;99668.78;108252;1282;22533;-61
2022/06/15 02:02:12;;;;;;;3.90;1.90;;;;;;;13.03;61.03;99669.65;108138;1282;137497;-61
2022/06/15 02:04:49;;;;;;;7.30;1.90;;;;;;;13.00;61.34;99673.20;108432;1284;22504;-61
2022/06/15 02:07:28;;;;;;;7.90;2.20;;;;;;;12.96;61.69;99672.39;108764;1274;22472;-61
2022/06/15 02:10:10;;;;;;;5.90;2.10;;;;;;;12.88;61.76;99672.46;109163;1274;138828;-61
2022/06/15 02:13:04;;;;;;;5.10;1.90;;;;;;;12.81;61.98;99678.24;109224;1274;23113;-61
2022/06/15 02:15:34;;;;;;;8.10;2.20;;;;;;;12.72;62.49;99677.05;109150;1274;138777;-61
2022/06/15 02:18:06;;;;;;;4.00;2.20;;;;;;;12.67;62.53;99679.36;109036;1274;22440;-61
2022/06/15 02:20:36;;;;;;;3.20;1.60;;;;;;;12.62;63.02;99681.99;108824;1275;138472;-61
2022/06/15 02:23:04;;;;;;;7.30;2.20;;;;;;;12.58;63.15;99688.97;108753;1275;22497;-61
2022/06/15 02:25:33;;;;;;;8.30;3.00;;;;;;;12.54;63.46;99689.79;108908;1274;22449;-61
2022/06/15 02:28:00;;;;;;;3.70;2.20;;;;;;;12.50;63.66;99692.06;108882;1274;138483;-61
2022/06/15 02:30:28;;;;;;;3.80;1.80;;;;;;;12.47;64.20;99695.33;109217;1274;22636;-61
2022/06/15 02:33:04;;;;;;;8.90;3.20;;;;;;;12.44;64.19;99694.27;108786;1274;138050;-61
2022/06/15 02:35:31;;;;;;;4.00;2.10;;;;;;;12.42;64.48;99695.55;109043;1276;22471;-61
2022/06/15 02:37:58;;;;;;;7.00;2.00;;;;;;;12.41;64.45;99701.90;109027;1273;139013;-61
2022/06/15 02:40:25;;;;;;;3.80;2.20;;;;;;;12.41;64.58;99697.59;109159;1273;22434;-61
2022/06/15 02:42:52;;;;;;;5.40;2.30;;;;;;;12.40;64.85;99697.86;109093;1275;22480;-61
2022/06/15 02:45:20;;;;;;;;;;;;;;;12.39;65.00;99695.52;109084;1274;137912;-62
2022/06/15 02:47:49;;;;;;;5.10;2.30;;;;;;;12.42;65.04;99696.33;109173;1274;22518;-62
2022/06/15 02:50:18;;;;;;;7.80;2.10;;;;;;;12.43;65.13;99694.91;109008;1274;139280;-62
2022/06/15 02:53:18;;;;;;;8.30;2.70;;;;;;;12.44;65.15;99697.10;109037;1274;22456;-62
2022/06/15 02:55:46;;;;;;;6.80;2.40;;;;;;;12.48;65.48;99702.92;108427;1282;137971;-61
2022/06/15 02:58:14;;;;;;;4.90;2.30;;;;;;;12.51;65.41;99704.53;108469;1281;23311;-62
2022/06/15 03:00:45;;;;;;;6.10;2.40;;;;;;;12.54;65.24;99703.02;108513;1281;22399;-62
2022/06/15 03:03:13;;;;;;;6.90;2.00;;;;;;;12.58;65.45;99702.64;108330;1282;139148;-61
2022/06/15 03:05:45;;;;;;;7.20;2.80;;;;;;;12.64;65.31;99702.73;108463;1282;23645;-61
2022/06/15 03:08:12;;;;;;;4.60;2.50;;;;;;;12.69;65.13;99703.02;108323;1282;139925;-61
2022/06/15 03:10:39;;;;;;;5.10;1.90;;;;;;;12.74;65.32;99701.61;108654;1281;23352;-61
2022/06/15 03:13:06;;;;;;;4.00;1.50;;;;;;;12.79;65.13;99700.05;108460;1282;22667;-61
2022/06/15 03:15:33;;;;;;;3.80;1.80;;;;;;;12.83;65.10;99700.89;108309;1281;138973;-64
2022/06/15 03:18:00;;;;;;;3.00;1.90;;;;;;;12.88;64.92;99697.13;108610;1281;22508;-61
2022/06/15 03:20:27;;;;;;;10.90;2.30;;;;;;;12.94;64.87;99699.17;108266;1282;138404;-61
2022/06/15 03:22:55;;;;;;;5.10;1.70;;;;;;;13.00;64.93;99703.40;108444;1281;23082;-61
2022/06/15 03:25:23;;;;;;;3.30;1.90;;;;;;;13.05;64.87;99700.95;108518;1281;22528;-60
2022/06/15 03:27:50;;;;;;;4.20;1.90;;;;;;;13.12;64.59;99705.08;108351;1281;139254;-61
2022/06/15 03:30:17;;;;;;;9.60;2.00;;;;;;;13.18;64.74;99712.27;108499;1281;22499;-62
2022/06/15 03:32:50;;;;;;;5.70;2.10;;;;;;;13.23;64.49;99710.83;109162;1276;138515;-62
2022/06/15 03:35:17;;;;;;;5.90;2.20;;;;;;;13.30;64.44;99716.73;108983;1276;25205;-61
2022/06/15 03:37:45;;;;;;;3.00;1.60;;;;;;;13.34;64.42;99715.20;104701;1276;138961;-60
2022/06/15 03:40:30;;;;;;;5.10;2.00;;;;;;;13.40;64.53;99719.50;104875;1276;24221;-61
2022/06/15 03:42:57;;;;;;;4.60;2.10;;;;;;;13.43;64.28;99720.75;104878;1276;23894;-60
2022/06/15 03:45:25;;;;;;;8.70;2.00;;;;;;;13.46;64.19;99726.17;104897;1276;138477;-60
2022/06/15 03:47:56;;;;;;;3.40;2.10;;;;;;;13.51;64.07;99726.63;104870;1276;25338;-60
2022/06/15 03:50:24;;;;;;;5.30;1.80;;;;;;;13.54;64.08;99723.73;104958;1276;138554;-61
2022/06/15 03:52:54;;;;;;;6.70;2.30;;;;;;;13.57;64.04;99725.36;105014;1275;22637;-60
2022/06/15 03:55:25;;;;;;;8.20;2.10;;;;;;;13.60;64.17;99725.36;104985;1274;24421;-61
2022/06/15 03:57:52;;;;;;;3.20;2.00;;;;;;;13.65;64.39;99727.68;104582;1276;139749;-60
2022/06/15 04:00:20;;;;;;;4.30;1.80;;;;;;;13.71;64.14;99726.47;104776;1276;22635;-60
2022/06/15 04:02:51;;;;;;;2.40;1.70;;;;;;;13.78;64.16;99729.64;104754;1276;138248;-61
2022/06/15 04:05:43;;;;;;;5.70;2.00;;;;;;;13.84;63.78;99732.94;108404;1276;22565;-61
2022/06/15 04:08:34;;;;;;;6.90;2.10;;;;;;;13.88;63.48;99735.71;109096;1276;138759;-61
2022/06/15 04:13:59;;;;;;;5.30;2.10;;;;;;;13.97;63.34;99740.83;109024;1274;137485;-61
2022/06/15 04:16:27;;;;;;;11.80;2.80;;;;;;;14.00;63.16;99739.00;109117;1275;22340;-61
2022/06/15 04:18:55;;;;;;;6.50;1.90;;;;;;;14.02;63.14;99739.60;109126;1273;22438;-61
2022/06/15 04:21:22;;;;;;;3.50;2.10;;;;;;;14.03;63.20;99738.89;109114;1275;137494;-61
2022/06/15 04:23:50;;;;;;;8.50;2.10;;;;;;;14.06;63.21;99735.61;109127;1276;23805;-61
2022/06/15 04:26:18;;;;;;;4.50;1.80;;;;;;;14.09;63.26;99738.52;109035;1275;137775;-61
2022/06/15 04:28:47;;;;;;;6.90;2.00;;;;;;;14.13;63.32;99737.02;109261;1274;22449;-61
2022/06/15 04:31:17;;;;;;;3.40;1.80;;;;;;;14.19;63.21;99739.64;109242;1275;22399;-61
2022/06/15 04:33:44;;;;;;;7.90;2.80;;;;;;;14.24;63.03;99742.23;109201;1273;138410;-61
2022/06/15 04:36:12;;;;;;;9.40;2.50;;;;;;;14.27;62.78;99743.33;109125;1273;23291;-61
2022/06/15 04:38:41;;;;;;;3.60;2.40;;;;;;;14.24;62.83;99737.02;109163;1274;137689;-61
2022/06/15 04:41:08;;;;;;;6.00;2.10;;;;;;;14.25;62.76;99739.81;108857;1275;22534;-61
2022/06/15 04:43:36;;;;;;;5.00;1.70;;;;;;;14.25;62.88;99741.61;109300;1276;22446;-61
2022/06/15 04:46:06;;;;;;;3.70;1.90;;;;;;;14.26;62.73;99742.45;109036;1274;137786;-61
2022/06/15 04:48:34;;;;;;;10.10;2.60;;;;;;;14.30;62.98;99743.24;109071;1276;22457;-61
2022/06/15 04:51:18;;;;;;;5.10;2.60;;;;;;;14.35;62.85;99746.69;109125;1274;138191;-61
2022/06/15 04:53:50;;;;;;;4.80;2.20;;;;;;;14.35;62.28;99745.27;109063;1276;22446;-61
2022/06/15 04:56:17;;;;;;;2.80;2.10;;;;;;;14.36;62.55;99751.79;109011;1274;137430;-62
2022/06/15 04:58:46;;;;;;;8.70;2.60;;;;;;;14.37;62.51;99755.24;109099;1276;22971;-61
2022/06/15 05:01:14;;;;;;;4.00;1.90;;;;;;;14.41;62.55;99754.48;109146;1274;22581;-61
2022/06/15 05:03:41;;;;;;;4.80;2.10;;;;;;;14.47;62.69;99756.73;109068;1274;139426;-61
2022/06/15 05:06:10;;;;;;;4.50;1.70;;;;;;;14.55;62.54;99755.63;109308;1274;22507;-61
2022/06/15 05:08:36;;;;;;;2.80;1.60;;;;;;;14.61;62.17;99757.52;109198;1274;137492;-61
2022/06/15 05:11:03;;;;;;;2.40;1.90;;;;;;;14.68;61.94;99757.17;109148;1274;22516;-62
2022/06/15 05:13:31;;;;;;;3.90;1.60;;;;;;;14.72;61.67;99753.41;109154;1275;22383;-62
2022/06/15 05:15:58;;;;;;;4.30;2.20;;;;;;;14.74;61.46;99755.27;109048;1274;137569;-62
2022/06/15 05:18:26;;;;;;;4.70;1.70;;;;;;;14.79;61.31;99755.75;109188;1274;22422;-62
2022/06/15 05:20:55;;;;;;;4.70;2.00;;;;;;;14.90;61.46;99758.23;109087;1274;137630;-61
2022/06/15 05:23:22;;;;;;;6.90;1.70;;;;;;;15.10;61.48;99758.52;109192;1275;22597;-60
2022/06/15 05:26:24;;;;;;;3.60;1.70;;;;;;;15.47;61.09;99754.16;108794;1275;139267;-61
2022/06/15 05:28:52;;;;;;;3.80;1.90;;;;;;;15.87;59.67;99753.99;109047;1275;22443;-60
2022/06/15 05:31:21;;;;;;;4.50;1.90;;;;;;;16.19;58.08;99751.09;109133;1274;22458;-60
2022/06/15 05:33:55;;;;;;;3.10;1.40;;;;;;;16.40;57.12;99746.36;109142;1274;138737;-61
2022/06/15 05:36:28;;;;;;;5.60;1.70;;;;;;;16.57;56.80;99744.38;109090;1276;23139;-60
2022/06/15 05:38:55;;;;;;;7.20;1.80;;;;;;;16.76;56.24;99743.20;109093;1276;139458;-61
2022/06/15 05:41:22;;;;;;;3.30;1.80;;;;;;;16.94;55.79;99748.60;109085;1276;23347;-61
2022/06/15 05:43:59;;;;;;;5.20;1.50;;;;;;;17.13;55.70;99751.27;109221;1274;138483;-60
2022/06/15 05:46:30;;;;;;;4.70;1.60;;;;;;;17.36;55.46;99745.88;107012;1275;25264;-60
2022/06/15 05:49:08;;;;;;;3.10;1.60;;;;;;;17.65;54.62;99742.55;109342;1274;22469;-60
2022/06/15 05:51:35;;;;;;;4.00;1.90;;;;;;;17.89;53.80;99739.41;109182;1274;137900;-61
2022/06/15 05:54:02;;;;;;;4.40;1.50;;;;;;;18.07;52.66;99740.27;109335;1274;22446;-61
2022/06/15 05:56:33;;;;;;;6.40;1.60;;;;;;;18.11;52.38;99739.17;109259;1274;139181;-62
2022/06/15 05:59:00;;;;;;;2.60;1.50;;;;;;;18.15;51.90;99738.92;109186;1274;22438;-61
2022/06/15 06:01:29;;;;;;;4.40;1.40;;;;;;;18.22;51.82;99744.46;109258;1277;22452;-60
2022/06/15 06:03:56;;;;;;;5.60;1.90;;;;;;;18.31;51.64;99745.96;109258;1274;138054;-60
2022/06/15 06:06:23;;;;;;;5.20;1.50;;;;;;;18.31;51.38;99747.29;109347;1274;22456;-60
2022/06/15 06:08:50;;;;;;;5.30;1.90;;;;;;;18.32;51.39;99745.73;109175;1275;137672;-60
2022/06/15 06:11:17;;;;;;;4.00;1.50;;;;;;;18.38;51.22;99745.50;109310;1274;23382;-60
2022/06/15 06:13:43;;;;;;;4.60;2.10;;;;;;;18.44;50.76;99747.40;109291;1274;141896;-60
2022/06/15 06:16:18;;;;;;;5.00;2.00;;;;;;;18.45;50.16;99750.25;107331;1274;22755;-60
2022/06/15 06:18:45;;;;;;;4.60;1.60;;;;;;;18.34;50.01;99747.13;109341;1274;22550;-60
2022/06/15 06:21:12;;;;;;;6.30;1.60;;;;;;;18.19;50.87;99749.38;109248;1274;138445;-60
2022/06/15 06:23:39;;;;;;;4.30;1.70;;;;;;;18.10;51.12;99750.42;109396;1273;22480;-60
2022/06/15 06:26:05;;;;;;;2.80;1.50;;;;;;;18.02;51.25;99751.83;109260;1274;137575;-60
2022/06/15 06:28:40;;;;;;;5.00;2.30;;;;;;;17.92;51.30;99752.09;109168;1274;22551;-60
2022/06/15 06:31:08;;;;;;;4.70;1.90;;;;;;;17.87;51.49;99756.23;109401;1274;23285;-60
2022/06/15 06:33:36;;;;;;;8.80;1.80;;;;;;;17.85;51.32;99753.17;109210;1274;138752;-60
2022/06/15 06:36:11;;;;;;;3.80;1.30;;;;;;;17.88;50.91;99755.33;109343;1274;22515;-60
2022/06/15 06:38:38;;;;;;;4.40;1.50;;;;;;;17.86;50.64;99759.43;109284;1274;139280;-60
2022/06/15 06:41:05;;;;;;;5.10;2.00;;;;;;;17.82;50.50;99758.77;109283;1274;23420;-60
2022/06/15 06:43:32;;;;;;;7.90;1.70;;;;;;;17.73;50.38;99762.61;109334;1274;22283;-60
2022/06/15 06:45:59;;;;;;;5.00;1.60;;;;;;;17.56;51.00;99762.83;109240;1274;139129;-60
2022/06/15 06:48:26;;;;;;;2.00;1.40;;;;;;;17.45;51.32;99756.61;109326;1274;22446;-60
2022/06/15 06:50:52;;;;;;;6.00;1.70;;;;;;;17.45;51.84;99759.81;109203;1274;138554;-60
2022/06/15 06:53:19;;;;;;;7.60;1.70;;;;;;;17.52;51.73;99760.14;109330;1274;23553;-60
2022/06/15 06:55:46;;;;;;;5.10;1.50;;;;;;;17.60;50.94;99770.64;109262;1274;137573;-60
2022/06/15 06:58:13;;;;;;;5.20;2.00;;;;;;;17.60;50.70;99766.52;109238;1274;22519;-60
2022/06/15 07:00:40;;;;;;;4.40;1.50;;;;;;;17.58;51.43;99764.97;109325;1274;22431;-60
2022/06/15 07:03:06;;;;;;;3.50;1.40;;;;;;;17.57;51.53;99763.98;109170;1274;138500;-59
2022/06/15 07:05:34;;;;;;;3.20;1.50;;;;;;;17.58;51.70;99762.64;109332;1274;22460;-60
2022/06/15 07:08:01;;;;;;;9.00;2.00;;;;;;;17.61;51.18;99763.52;109228;1274;137406;-59
2022/06/15 07:10:28;;;;;;;2.60;1.40;;;;;;;17.61;51.70;99760.89;109367;1274;23106;-59
2022/06/15 07:12:55;;;;;;;5.10;1.60;;;;;;;17.66;51.80;99764.48;109231;1275;23114;-60
2022/06/15 07:15:22;;;;;;;24.50;2.60;;;;;;;17.71;50.96;99761.88;109118;1274;138924;-60
2022/06/15 07:17:49;;;;;;;4.30;1.40;;;;;;;17.71;51.48;99763.48;109338;1274;22509;-60
2022/06/15 07:20:15;;;;;;;7.20;1.90;;;;;;;17.78;50.96;99762.92;109255;1274;137538;-60
2022/06/15 07:22:42;;;;;;;4.50;1.80;;;;;;;17.86;50.18;99764.17;109261;1273;23144;-60
2022/06/15 07:25:09;;;;;;;5.50;1.90;;;;;;;17.92;49.88;99764.23;109192;1274;22423;-58
2022/06/15 07:27:36;;;;;;;5.10;1.50;;;;;;;17.99;49.75;99763.63;109114;1274;138620;-64
2022/06/15 07:30:05;;;;;;;2.30;1.20;;;;;;;18.08;49.68;99763.20;107693;1275;25265;-59
2022/06/15 07:32:32;;;;;;;5.20;1.60;;;;;;;18.19;49.70;99757.21;109198;1274;138807;-60
2022/06/15 07:34:59;;;;;;;5.40;1.80;;;;;;;18.32;49.76;99753.47;109332;1275;24028;-60
2022/06/15 07:37:26;;;;;;;8.00;1.70;;;;;;;18.46;49.52;99753.42;109287;1274;23445;-60
2022/06/15 07:40:13;;;;;;;6.80;1.50;;;;;;;18.57;49.01;99753.39;109348;1274;22476;-60
2022/06/15 07:42:40;;;;;;;3.70;1.40;;;;;;;18.64;48.60;99753.04;109137;1276;23263;-60
2022/06/15 07:45:07;;;;;;;2.30;1.40;;;;;;;18.71;48.37;99750.27;109125;1277;137531;-60
2022/06/15 07:50:20;;;;;;;3.30;1.50;;;;;;;18.87;46.15;99756.54;109172;1275;138013;-60
2022/06/15 07:53:03;;;;;;;4.90;1.30;;;;;;;18.85;46.11;99753.20;109180;1276;22449;-60
2022/06/15 07:55:33;;;;;;;2.70;1.10;;;;;;;18.83;45.78;99750.90;109213;1276;22453;-60
2022/06/15 08:00:17;;;;;;;3.40;1.40;;;;;;;18.82;46.76;99747.57;101928;1309;546290;-61
2022/06/15 08:02:44;;;;;;;8.00;1.60;;;;;;;18.81;46.77;99744.15;103900;1286;137986;-60
2022/06/15 08:05:11;;;;;;;1.80;1.10;;;;;;;18.84;46.98;99748.29;103995;1287;22569;-60
2022/06/15 08:07:38;;;;;;;3.50;1.00;;;;;;;18.90;46.70;99746.02;103925;1284;22882;-60
2022/06/15 08:10:05;;;;;;;1.50;1.00;;;;;;;18.97;46.70;99744.16;103830;1287;137890;-60
2022/06/15 08:12:32;;;;;;;3.20;1.30;;;;;;;19.02;46.63;99745.93;103973;1287;22629;-60
2022/06/15 08:15:00;;;;;;;3.10;1.30;;;;;;;19.07;45.92;99743.56;103869;1284;300069;-61
2022/06/15 08:17:30;;;;;;;6.30;1.30;;;;;;;19.07;45.43;99741.45;104103;1284;25320;-60
2022/06/15 08:20:00;;;;;;;6.10;1.40;;;;;;;19.08;45.09;99734.54;108565;1280;137067;-61
2022/06/15 08:22:27;;;;;;;2.00;1.10;;;;;;;19.14;44.96;99742.77;108387;1282;22441;-61
2022/06/15 08:24:53;;;;;;;3.20;1.10;;;;;;;19.19;43.84;99739.73;108396;1282;22493;-61
2022/06/15 08:27:21;;;;;;;35.90;2.90;;;;;;;19.18;43.32;99739.86;108334;1283;137203;-61
2022/06/15 08:29:49;;;;;;;2.50;1.50;;;;;;;19.18;44.19;99732.39;108842;1278;22431;-60
2022/06/15 08:32:16;;;;;;;6.60;1.80;;;;;;;19.25;43.82;99735.89;108888;1277;137381;-61
2022/06/15 08:34:43;;;;;;;5.90;1.30;;;;;;;19.30;44.17;99735.33;109057;1277;23252;-61
2022/06/15 08:37:12;;;;;;;3.80;1.80;;;;;;;19.32;44.76;99735.55;108955;1277;22413;-61
2022/06/15 08:39:39;;;;;;;8.00;2.00;;;;;;;19.33;44.55;99743.83;108874;1277;137388;-61
2022/06/15 08:42:21;;;;;;;2.70;1.30;;;;;;;19.30;43.81;99746.27;109025;1277;22538;-61
2022/06/15 08:44:54;;;;;;;2.20;1.10;;;;;;;19.30;43.73;99738.71;108871;1277;137890;-60
2022/06/15 08:47:54;;;;;;;3.30;1.40;;;;;;;19.28;43.53;99736.36;109036;1277;22514;-61
2022/06/15 08:50:37;;;;;;;3.70;1.30;;;;;;;19.29;44.62;99734.48;108918;1277;137179;-61
2022/06/15 08:53:20;;;;;;;6.20;1.50;;;;;;;19.37;44.35;99730.64;109119;1277;23352;-62
2022/06/15 08:56:07;;;;;;;2.80;1.10;;;;;;;19.48;44.23;99730.20;108668;1280;137285;-61
2022/06/15 08:58:43;;;;;;;5.30;1.50;;;;;;;19.57;43.25;99731.77;109147;1277;22578;-62
2022/06/15 09:01:33;;;;;;;4.70;1.60;;;;;;;19.59;43.75;99732.61;109045;1278;23412;-62
2022/06/15 09:04:37;;;;;;;5.10;1.30;;;;;;;19.60;43.81;99729.55;108140;1286;137137;-62
2022/06/15 09:07:09;;;;;;;4.30;1.30;;;;;;;19.56;42.88;99732.05;108256;1286;23332;-62
2022/06/15 09:10:00;;;;;;;3.00;1.10;;;;;;;19.49;43.35;99732.35;107948;1287;136993;-61
2022/06/15 09:15:44;;;;;;;2.80;1.00;;;;;;;19.64;43.11;99726.84;107789;1287;137134;-62
2022/06/15 09:18:46;;;;;;;3.80;1.70;;;;;;;19.75;43.55;99727.78;108152;1286;22505;-62
2022/06/15 09:21:20;;;;;;;5.70;1.60;;;;;;;19.85;42.79;99725.77;107925;1286;139258;-61
2022/06/15 09:23:53;;;;;;;4.40;1.40;;;;;;;19.84;43.17;99731.10;108121;1287;23285;-61
2022/06/15 09:26:27;;;;;;;1.30;1.10;;;;;;;19.82;43.19;99732.26;108049;1286;137454;-62
2022/06/15 09:29:00;;;;;;;3.20;1.20;;;;;;;19.83;43.10;99732.35;107975;1287;23633;-61
2022/06/15 09:31:35;;;;;;;1.60;1.20;;;;;;;19.83;42.33;99723.60;107970;1286;22523;-61
2022/06/15 09:34:04;;;;;;;2.40;1.20;;;;;;;19.84;42.71;99724.36;108049;1286;138178;-61
2022/06/15 09:36:37;;;;;;;2.50;0.80;;;;;;;19.89;42.36;99728.44;105805;1286;25365;-61
2022/06/15 09:39:04;;;;;;;1.30;1.10;;;;;;;19.94;41.10;99727.09;107905;1287;139090;-61
2022/06/15 09:41:57;;;;;;;1.70;1.00;;;;;;;19.94;41.14;99725.77;107451;1282;22588;-59
2022/06/15 09:44:33;;;;;;;3.70;1.20;;;;;;;19.98;40.97;99723.67;104409;1278;137270;-62
2022/06/15 09:47:28;;;;;;;8.30;1.40;;;;;;;19.98;40.65;99719.42;104753;1280;24278;-62
2022/06/15 09:50:20;;;;;;;6.30;1.90;;;;;;;19.99;40.92;99726.85;104898;1277;138013;-61
2022/06/15 09:53:12;;;;;;;3.50;1.00;;;;;;;20.03;40.95;99715.36;104962;1277;25477;-61
2022/06/15 09:55:48;;;;;;;2.00;1.00;;;;;;;20.09;40.96;99717.30;104836;1277;25615;-61
2022/06/15 09:58:47;;;;;;;1.40;1.20;;;;;;;20.15;40.22;99712.63;104749;1277;22586;-61
2022/06/15 10:01:14;;;;;;;7.30;1.50;;;;;;;20.19;40.41;99720.20;104641;1280;22586;-60
2022/06/15 10:03:43;;;;;;;5.20;2.60;;;;;;;20.17;39.85;99720.98;104674;1279;141312;-60
2022/06/15 10:06:27;;;;;;;13.70;2.50;;;;;;;20.08;40.26;99712.77;104796;1279;22631;-59
2022/06/15 10:08:55;;;;;;;3.70;1.40;;;;;;;20.06;40.35;99712.89;108929;1279;137414;-60
2022/06/15 10:11:30;;;;;;;3.10;1.40;;;;;;;20.12;39.56;99713.03;108942;1278;22438;-60
2022/06/15 10:13:57;;;;;;;7.40;1.50;;;;;;;20.17;39.45;99711.96;108869;1279;138788;-60
2022/06/15 10:16:29;;;;;;;5.90;1.60;;;;;;;20.18;39.62;99709.23;108942;1279;22479;-60
2022/06/15 10:18:57;;;;;;;6.30;1.30;;;;;;;20.16;38.61;99722.17;109029;1279;22457;-60
2022/06/15 10:21:26;;;;;;;9.50;2.60;;;;;;;20.03;37.99;99719.39;108888;1277;138936;-60
2022/06/15 10:23:59;;;;;;;3.20;1.20;;;;;;;19.87;38.40;99720.96;108877;1279;22531;-60
2022/06/15 10:26:43;;;;;;;4.20;1.90;;;;;;;19.82;38.92;99713.45;108787;1279;139319;-60
2022/06/15 10:29:16;;;;;;;8.50;2.70;;;;;;;19.90;39.67;99708.89;108956;1279;23287;-60
2022/06/15 10:31:55;;;;;;;8.90;3.00;;;;;;;19.98;39.23;99710.50;106156;1279;138990;-59
2022/06/15 10:34:29;;;;;;;6.30;2.00;;;;;;;20.01;39.67;99709.32;108995;1278;22484;-60
2022/06/15 10:36:57;;;;;;;5.30;1.60;;;;;;;20.02;39.57;99713.30;108796;1279;22409;-60
2022/06/15 10:39:31;;;;;;;82.20;61.40;;;;;;;20.00;39.81;99711.63;108857;1279;137205;-58
2022/06/15 10:42:09;;;;;;;12.40;5.50;;;;;;;19.99;40.03;99711.75;109073;1279;22397;-58
2022/06/15 10:44:53;;;;;;;4.20;1.90;;;;;;;20.03;40.23;99714.64;108671;1279;137221;-59
2022/06/15 10:47:25;;;;;;;11.40;2.20;;;;;;;20.09;40.94;99705.88;109060;1277;23034;-59
2022/06/15 10:49:59;;;;;;;7.80;1.90;;;;;;;20.22;40.30;99707.68;108834;1279;139631;-58
2022/06/15 10:52:40;;;;;;;126.10;90.70;;;;;;;20.30;39.99;99697.77;109037;1279;22527;-58
2022/06/15 11:04:15;;;;;;;5.00;1.20;;;;;;;20.62;38.20;99694.88;109290;1274;22432;-58
2022/06/15 11:06:53;;;;;;;6.40;1.50;;;;;;;20.64;38.67;99687.70;106702;1271;25148;-58
2022/06/15 11:09:26;;;;;;;1.20;0.80;;;;;;;20.70;39.12;99684.92;104930;1274;137279;-59
2022/06/15 11:11:54;;;;;;;2.20;1.30;;;;;;;20.80;39.23;99679.33;105075;1273;24343;-59
2022/06/15 11:14:27;;;;;;;3.80;1.10;;;;;;;20.90;39.17;99683.36;109218;1273;141101;-59
2022/06/15 11:19:52;;;;;;;4.00;1.10;;;;;;;21.04;37.78;99685.48;109219;1274;22441;-59
2022/06/15 11:22:19;;;;;;;4.10;1.30;;;;;;;20.98;37.61;99687.09;109477;1273;22440;-60
2022/06/15 11:24:54;;;;;;;4.50;1.40;;;;;;;20.89;37.99;99689.16;109069;1273;23390;-58
2022/06/15 11:27:24;;;;;;;6.90;5.90;;;;;;;20.81;38.40;99684.27;109009;1274;137069;-59
2022/06/15 11:30:00;;;;;;;20.20;15.00;;;;;;;20.79;37.82;99689.70;109236;1274;22464;-60
2022/06/15 11:32:57;;;;;;;5.20;1.90;;;;;;;20.79;38.45;99680.67;109062;1274;138214;-60
2022/06/15 11:35:27;;;;;;;2.70;1.20;;;;;;;20.82;38.59;99679.20;109382;1274;23486;-59
2022/06/15 11:38:13;;;;;;;1.80;1.20;;;;;;;20.80;38.58;99672.23;109192;1274;136157;-60
2022/06/15 11:40:43;;;;;;;6.50;2.40;;;;;;;20.74;38.56;99677.02;109211;1274;23348;-58
2022/06/15 11:43:22;;;;;;;9.40;1.80;;;;;;;20.68;38.35;99674.40;109224;1274;22471;-59
2022/06/15 11:45:49;;;;;;;6.50;2.30;;;;;;;20.62;38.03;99674.59;109151;1273;137750;-59
2022/06/15 11:48:31;;;;;;;4.20;1.60;;;;;;;20.55;38.33;99673.80;109308;1274;22460;-59
2022/06/15 11:51:40;;;;;;;3.80;1.30;;;;;;;20.54;39.24;99671.29;109183;1274;137153;-59
2022/06/15 11:54:54;;;;;;;15.00;3.20;;;;;;;20.62;39.43;99667.13;109376;1273;22446;-59
2022/06/15 11:57:28;;;;;;;9.20;5.10;;;;;;;20.77;38.98;99674.53;108603;1281;137951;-57
2022/06/15 12:00:16;;;;;;;3.20;1.80;;;;;;;20.89;38.31;99674.92;108544;1282;23239;-58
2022/06/15 12:03:12;;;;;;;3.90;1.10;;;;;;;20.95;37.45;99676.39;108657;1280;137791;-58
2022/06/15 12:05:43;;;;;;;2.80;1.30;;;;;;;20.93;37.08;99680.32;108687;1280;22474;-59
2022/06/15 12:08:28;;;;;;;5.60;4.10;;;;;;;20.92;36.64;99678.38;108781;1280;137673;-61
2022/06/15 12:11:00;;;;;;;7.30;2.00;;;;;;;20.88;37.07;99675.05;108633;1281;23552;-61